Terminal Aerodrome Forecast
Issued by NWS

Home | Current Version | Previous Version | Text Only | Print | Product List | Glossary On
Versions: 1 2 3 4 5 6 7 8 9 10 11 12 13 14 15 16 17 18 19 20 21 22 23 24 25 26 27 28 29
000
FTUS45 KLKN 290500
TAFWMC
TAF
KWMC 290521Z 2906/3006 VRB05KT P6SM VCSH FEW100 OVC120
     FM291600 VRB06KT P6SM VCSH SCT045 BKN070
      TEMPO 2920/2924 VRB18G30KT -TSRA SCT040CB BKN060
     FM300000 34008KT P6SM VCTS SCT060CB BKN080
      TEMPO 3000/3004 VRB14G28KT -TSRA BKN060CB=

USA.gov is the U.S. government's official web portal to all federal, state and local government web resources and services.